createdAt,value
2023-05-01T00:00:52.951Z,3.08
2023-05-01T00:01:54.936Z,3.40
2023-05-01T00:02:57.135Z,3.22
2023-05-01T00:03:59.673Z,3.22
2023-05-01T00:05:02.489Z,3.58
2023-05-01T00:06:05.839Z,3.38
2023-05-01T00:07:08.100Z,3.88
2023-05-01T00:08:11.614Z,3.90
2023-05-01T00:09:13.566Z,3.80
2023-05-01T00:10:15.544Z,3.13
2023-05-01T00:11:17.493Z,3.75
2023-05-01T00:12:19.736Z,3.42
2023-05-01T00:13:24.493Z,3.80
2023-05-01T00:14:26.501Z,4.22
2023-05-01T00:15:28.559Z,3.10
2023-05-01T00:16:31.637Z,3.08
2023-05-01T00:17:33.844Z,3.63
2023-05-01T00:18:36.140Z,3.80
2023-05-01T00:19:38.124Z,3.53
2023-05-01T00:20:40.563Z,2.95
2023-05-01T00:21:42.736Z,3.15
2023-05-01T00:22:44.664Z,3.95
2023-05-01T00:23:47.026Z,3.83
2023-05-01T00:24:50.339Z,3.38
2023-05-01T00:25:52.292Z,3.67
2023-05-01T00:26:54.282Z,3.60
2023-05-01T00:27:56.293Z,3.45
2023-05-01T00:28:58.641Z,3.58
2023-05-01T00:30:00.762Z,3.33
2023-05-01T00:31:02.922Z,3.63
2023-05-01T00:32:05.948Z,3.38
2023-05-01T00:33:08.327Z,3.75
2023-05-01T00:34:11.689Z,3.58
2023-05-01T00:35:13.763Z,3.88
2023-05-01T00:36:15.724Z,3.30
2023-05-01T00:37:18.501Z,3.45
2023-05-01T00:38:20.579Z,3.42
2023-05-01T00:39:22.569Z,3.30
2023-05-01T00:40:24.827Z,3.15
2023-05-01T00:41:27.402Z,3.40
2023-05-01T00:42:34.887Z,3.13
2023-05-01T00:43:37.169Z,3.58
2023-05-01T00:44:39.622Z,3.40
2023-05-01T00:46:46.027Z,3.47
2023-05-01T00:47:48.409Z,3.42
2023-05-01T00:48:50.370Z,3.15
2023-05-01T00:49:53.324Z,3.53
2023-05-01T00:50:56.809Z,2.97
2023-05-01T00:51:59.048Z,3.75
2023-05-01T00:53:01.203Z,3.03
2023-05-01T00:54:03.877Z,3.17
2023-05-01T00:55:07.007Z,3.13
2023-05-01T00:56:10.982Z,3.42
2023-05-01T00:57:13.001Z,3.28
2023-05-01T00:58:17.774Z,3.80
2023-05-01T00:59:19.734Z,3.58
2023-05-01T01:00:24.791Z,3.60
2023-05-01T01:01:27.126Z,3.40
2023-05-01T01:02:29.548Z,3.85
2023-05-01T01:03:31.773Z,3.67
2023-05-01T01:04:34.568Z,4.28
2023-05-01T01:07:11.649Z,3.20
2023-05-01T01:08:32.589Z,3.10
2023-05-01T01:10:47.348Z,3.58
2023-05-01T01:11:49.709Z,3.10
2023-05-01T01:13:12.274Z,3.80
2023-05-01T01:14:43.388Z,3.22
2023-05-01T01:15:59.718Z,3.80
2023-05-01T01:17:12.047Z,3.63
2023-05-01T01:18:24.314Z,3.03
2023-05-01T01:19:59.971Z,3.60
2023-05-01T01:21:19.144Z,3.63
2023-05-01T01:22:25.501Z,3.38
2023-05-01T01:23:57.644Z,3.40
2023-05-01T01:25:36.538Z,3.42
2023-05-01T01:27:06.460Z,3.28
2023-05-01T01:28:25.984Z,3.38
2023-05-01T01:29:49.147Z,3.10
2023-05-01T01:31:14.316Z,3.38
2023-05-01T01:32:41.127Z,3.55
2023-05-01T01:33:55.355Z,3.63
2023-05-01T01:35:03.436Z,3.45
2023-05-01T01:36:16.078Z,3.63
2023-05-01T01:37:24.166Z,3.53
2023-05-01T01:38:37.952Z,3.72
2023-05-01T01:39:46.380Z,3.90
2023-05-01T01:41:00.827Z,3.45
2023-05-01T01:42:09.435Z,3.70
2023-05-01T01:43:17.857Z,3.70
2023-05-01T01:44:30.841Z,3.60
2023-05-01T01:45:46.556Z,4.20
2023-05-01T01:46:50.736Z,3.63
2023-05-01T01:47:54.923Z,4.88
2023-05-01T01:48:58.602Z,3.25
2023-05-01T01:50:05.330Z,3.20
2023-05-01T01:51:15.080Z,3.22
2023-05-01T01:52:19.140Z,3.55
2023-05-01T01:53:24.138Z,4.28
2023-05-01T01:54:35.817Z,3.40
2023-05-01T01:55:40.380Z,4.28
2023-05-01T01:56:44.488Z,3.50
2023-05-01T01:57:47.389Z,4.45
2023-05-01T01:58:52.430Z,3.80
2023-05-01T01:59:56.023Z,3.67
2023-05-01T02:00:59.083Z,3.88
2023-05-01T02:03:06.166Z,3.63
2023-05-01T02:04:10.242Z,3.67
2023-05-01T02:05:16.456Z,3.78
2023-05-01T02:06:18.582Z,3.63
2023-05-01T02:07:22.084Z,4.05
2023-05-01T02:08:25.646Z,3.40
2023-05-01T02:09:30.118Z,4.03
2023-05-01T02:10:33.664Z,4.00
2023-05-01T02:11:38.059Z,3.97
2023-05-01T02:12:42.277Z,3.72
2023-05-01T02:13:45.472Z,3.63
2023-05-01T02:14:49.652Z,3.35
2023-05-01T02:15:52.740Z,3.53
2023-05-01T02:16:56.441Z,3.55
2023-05-01T02:17:59.529Z,3.38
2023-05-01T02:19:04.064Z,3.97
2023-05-01T02:20:09.668Z,4.22
2023-05-01T02:21:12.712Z,3.65
2023-05-01T02:22:16.093Z,3.63
2023-05-01T02:23:18.638Z,4.10
2023-05-01T02:25:26.591Z,3.90
2023-05-01T02:26:30.891Z,3.97
2023-05-01T02:27:38.131Z,3.80
2023-05-01T02:28:41.652Z,3.72
2023-05-01T02:29:44.513Z,4.22
2023-05-01T02:31:49.493Z,3.45
2023-05-01T02:32:52.185Z,3.65
2023-05-01T02:33:54.294Z,4.07
2023-05-01T02:34:56.266Z,3.58
2023-05-01T02:35:58.286Z,3.95
2023-05-01T02:37:00.735Z,3.40
2023-05-01T02:38:02.716Z,3.92
2023-05-01T02:39:05.050Z,4.00
2023-05-01T02:40:08.257Z,3.78
2023-05-01T02:41:11.836Z,3.65
2023-05-01T02:42:16.820Z,3.85
2023-05-01T02:43:21.072Z,3.35
2023-05-01T02:44:25.503Z,3.70
2023-05-01T02:45:29.819Z,3.60
2023-05-01T02:46:35.484Z,3.25
2023-05-01T02:47:41.697Z,4.53
2023-05-01T02:48:45.023Z,3.53
2023-05-01T02:49:49.318Z,3.10
2023-05-01T02:50:52.464Z,3.28
2023-05-01T02:51:54.581Z,3.67
2023-05-01T02:52:58.815Z,3.70
2023-05-01T02:54:02.064Z,3.75
2023-05-01T02:56:08.080Z,3.42
2023-05-01T02:57:10.935Z,3.65
2023-05-01T02:58:20.518Z,3.67
2023-05-01T02:59:22.567Z,3.38
2023-05-01T03:00:24.689Z,3.47
2023-05-01T03:01:27.239Z,3.90
2023-05-01T03:02:29.604Z,3.55
2023-05-01T03:03:31.657Z,3.90
2023-05-01T03:04:33.749Z,4.07
2023-05-01T03:05:35.762Z,3.75
2023-05-01T03:06:38.379Z,3.97
2023-05-01T03:07:40.446Z,3.97
2023-05-01T03:08:42.446Z,4.45
2023-05-01T03:09:44.484Z,4.25
2023-05-01T03:10:46.913Z,3.75
2023-05-01T03:11:49.120Z,3.80
2023-05-01T03:12:51.094Z,3.80
2023-05-01T03:13:53.133Z,3.50
2023-05-01T03:14:55.442Z,4.05
2023-05-01T03:15:57.660Z,3.65
2023-05-01T03:17:00.028Z,3.72
2023-05-01T03:18:02.048Z,3.83
2023-05-01T03:19:05.539Z,3.30
2023-05-01T03:21:09.797Z,3.20
2023-05-01T03:22:11.730Z,3.60
2023-05-01T03:23:13.994Z,3.13
2023-05-01T03:24:15.920Z,4.00
2023-05-01T03:25:18.014Z,3.88
2023-05-01T03:26:20.046Z,3.92
2023-05-01T03:27:22.366Z,3.58
2023-05-01T03:28:24.427Z,3.58
2023-05-01T03:29:26.390Z,3.88
2023-05-01T03:30:28.430Z,3.78
2023-05-01T03:31:30.758Z,3.35
2023-05-01T03:32:33.016Z,3.70
2023-05-01T03:33:35.001Z,3.50
2023-05-01T03:34:36.957Z,3.42
2023-05-01T03:35:39.243Z,3.50
2023-05-01T03:36:41.291Z,3.58
2023-05-01T03:37:43.300Z,3.83
2023-05-01T03:38:45.689Z,3.70
2023-05-01T03:40:50.001Z,3.40
2023-05-01T03:41:51.956Z,4.15
2023-05-01T03:42:53.836Z,3.88
2023-05-01T03:43:56.207Z,4.20
2023-05-01T03:44:58.161Z,4.15
2023-05-01T03:46:00.205Z,3.97
2023-05-01T03:47:02.355Z,4.32
2023-05-01T03:48:05.193Z,4.35
2023-05-01T03:49:07.759Z,4.07
2023-05-01T03:50:10.029Z,4.30
2023-05-01T03:51:11.909Z,4.47
2023-05-01T03:52:14.854Z,3.83
2023-05-01T03:53:17.169Z,4.30
2023-05-01T03:54:19.136Z,4.15
2023-05-01T03:55:21.270Z,4.43
2023-05-01T03:56:25.978Z,4.10
2023-05-01T03:57:28.099Z,4.43
2023-05-01T03:58:30.200Z,4.68
2023-05-01T03:59:32.164Z,3.90
2023-05-01T04:00:34.483Z,3.97
2023-05-01T04:01:36.435Z,4.18
2023-05-01T04:02:38.880Z,4.13
2023-05-01T04:03:41.097Z,4.60
2023-05-01T04:04:44.225Z,3.80
2023-05-01T04:05:46.358Z,4.25
2023-05-01T04:06:49.976Z,3.67
2023-05-01T04:07:52.032Z,4.35
2023-05-01T04:08:54.465Z,4.25
2023-05-01T04:09:56.671Z,3.53
2023-05-01T04:10:58.803Z,4.38
2023-05-01T04:12:02.442Z,3.83
2023-05-01T04:13:05.197Z,4.68
2023-05-01T04:14:07.149Z,3.65
2023-05-01T04:15:10.109Z,3.88
2023-05-01T04:16:12.494Z,3.70
2023-05-01T04:17:14.836Z,4.00
2023-05-01T04:18:16.930Z,4.55
2023-05-01T04:19:18.938Z,4.72
2023-05-01T04:20:20.851Z,3.83
2023-05-01T04:21:23.272Z,4.32
2023-05-01T04:22:25.384Z,4.18
2023-05-01T04:23:27.447Z,4.22
2023-05-01T04:24:29.464Z,3.88
2023-05-01T04:25:31.903Z,4.30
2023-05-01T04:26:34.036Z,4.13
2023-05-01T04:27:36.122Z,4.38
2023-05-01T04:28:38.221Z,4.30
2023-05-01T04:29:41.941Z,3.80
2023-05-01T04:30:43.870Z,4.57
2023-05-01T04:31:45.950Z,3.67
2023-05-01T04:32:47.987Z,3.72
2023-05-01T04:33:50.580Z,3.90
2023-05-01T04:34:52.557Z,4.03
2023-05-01T04:35:54.547Z,3.97
2023-05-01T04:36:59.396Z,4.05
2023-05-01T04:38:01.714Z,3.65
2023-05-01T04:39:03.745Z,4.40
2023-05-01T04:40:06.696Z,3.85
2023-05-01T04:41:09.619Z,4.07
2023-05-01T04:42:11.885Z,4.00
2023-05-01T04:43:13.937Z,3.53
2023-05-01T04:44:15.931Z,3.65
2023-05-01T04:45:18.010Z,3.83
2023-05-01T04:46:20.561Z,3.90
2023-05-01T04:47:22.844Z,4.35
2023-05-01T04:48:24.861Z,4.05
2023-05-01T04:49:26.823Z,3.80
2023-05-01T04:50:29.243Z,4.05
2023-05-01T04:51:31.363Z,3.65
2023-05-01T04:52:33.321Z,3.83
2023-05-01T04:53:35.354Z,3.53
2023-05-01T04:54:37.663Z,3.55
2023-05-01T04:55:39.702Z,3.70
2023-05-01T04:56:41.637Z,4.22
2023-05-01T04:57:43.590Z,3.60
2023-05-01T04:58:46.018Z,3.90
2023-05-01T04:59:48.564Z,3.45
2023-05-01T05:00:50.810Z,3.47
2023-05-01T05:01:52.811Z,3.38
2023-05-01T05:02:55.331Z,4.20
2023-05-01T05:03:57.561Z,3.30
2023-05-01T05:04:59.703Z,3.53
2023-05-01T05:06:01.749Z,4.13
2023-05-01T05:07:04.064Z,3.38
2023-05-01T05:08:06.807Z,4.13
2023-05-01T05:09:08.793Z,3.28
2023-05-01T05:10:10.973Z,3.25
2023-05-01T05:11:13.485Z,3.63
2023-05-01T05:12:15.462Z,4.10
2023-05-01T05:13:17.435Z,4.20
2023-05-01T05:14:19.418Z,4.05
2023-05-01T05:15:21.824Z,4.20
2023-05-01T05:16:23.992Z,4.10
2023-05-01T05:17:26.075Z,3.85
2023-05-01T05:18:28.065Z,4.25
2023-05-01T05:19:30.603Z,4.53
2023-05-01T05:20:32.616Z,4.30
2023-05-01T05:21:35.705Z,4.70
2023-05-01T05:22:37.943Z,4.43
2023-05-01T05:23:40.224Z,4.90
2023-05-01T05:24:42.203Z,4.40
2023-05-01T05:25:44.180Z,5.07
2023-05-01T05:26:46.184Z,4.43
2023-05-01T05:27:48.645Z,4.40
2023-05-01T05:28:51.296Z,4.50
2023-05-01T05:29:53.376Z,4.35
2023-05-01T05:30:56.600Z,4.20
2023-05-01T05:31:59.964Z,4.32
2023-05-01T05:33:02.098Z,4.70
2023-05-01T05:34:04.447Z,4.88
2023-05-01T05:35:06.793Z,3.75
2023-05-01T05:36:09.202Z,4.60
2023-05-01T05:37:11.975Z,3.92
2023-05-01T05:38:14.665Z,3.90
2023-05-01T05:39:16.680Z,4.22
2023-05-01T05:40:19.694Z,4.55
2023-05-01T05:41:21.866Z,4.18
2023-05-01T05:42:23.927Z,4.32
2023-05-01T05:43:27.972Z,4.50
2023-05-01T05:44:31.977Z,4.80
2023-05-01T05:45:34.759Z,4.43
2023-05-01T05:47:39.116Z,3.88
2023-05-01T05:48:41.815Z,3.92
2023-05-01T05:49:43.761Z,3.85
2023-05-01T05:50:45.999Z,4.13
2023-05-01T05:51:48.060Z,4.40
2023-05-01T05:52:50.499Z,4.05
2023-05-01T05:53:52.475Z,3.80
2023-05-01T05:54:54.460Z,4.28
2023-05-01T05:55:56.388Z,3.90
2023-05-01T05:56:58.620Z,3.80
2023-05-01T05:58:00.885Z,3.88
2023-05-01T05:59:04.755Z,4.07
2023-05-01T06:00:09.483Z,3.63
2023-05-01T06:01:11.892Z,3.63
2023-05-01T06:02:14.055Z,3.67
2023-05-01T06:03:17.387Z,3.55
2023-05-01T06:04:19.327Z,3.35
2023-05-01T06:05:21.698Z,3.30
2023-05-01T06:06:24.282Z,3.30
2023-05-01T06:07:26.369Z,3.40
2023-05-01T06:08:28.490Z,3.13
2023-05-01T06:09:30.946Z,4.10
2023-05-01T06:10:33.010Z,3.95
2023-05-01T06:11:34.983Z,3.40
2023-05-01T06:12:37.656Z,3.30
2023-05-01T06:13:41.184Z,3.72
2023-05-01T06:14:43.125Z,3.40
2023-05-01T06:15:45.548Z,3.45
2023-05-01T06:16:47.782Z,3.35
2023-05-01T06:17:50.313Z,3.22
2023-05-01T06:18:52.676Z,3.15
2023-05-01T06:19:55.094Z,3.03
2023-05-01T06:20:57.485Z,3.22
2023-05-01T06:21:59.814Z,3.22
2023-05-01T06:23:01.809Z,3.60
2023-05-01T06:24:04.074Z,3.17
2023-05-01T06:25:07.377Z,3.55
2023-05-01T06:26:10.358Z,3.17
2023-05-01T06:27:12.562Z,3.13
2023-05-01T06:28:14.717Z,3.38
2023-05-01T06:29:16.836Z,3.40
2023-05-01T06:30:22.280Z,3.05
2023-05-01T06:31:24.515Z,3.40
2023-05-01T06:32:26.543Z,3.15
2023-05-01T06:33:28.583Z,3.75
2023-05-01T06:34:31.239Z,3.53
2023-05-01T06:35:33.227Z,3.15
2023-05-01T06:36:35.292Z,3.90
2023-05-01T06:37:38.651Z,3.15
2023-05-01T06:38:42.444Z,3.42
2023-05-01T06:39:44.375Z,3.05
2023-05-01T06:40:48.821Z,2.97
2023-05-01T06:41:50.928Z,3.28
2023-05-01T06:42:53.359Z,2.90
2023-05-01T06:43:56.026Z,3.28
2023-05-01T06:44:58.012Z,2.97
2023-05-01T06:46:00.169Z,3.08
2023-05-01T06:47:02.871Z,2.88
2023-05-01T06:48:05.291Z,2.97
2023-05-01T06:49:07.990Z,2.85
2023-05-01T06:50:10.760Z,3.13
2023-05-01T06:51:16.164Z,2.95
2023-05-01T06:52:18.290Z,2.70
2023-05-01T06:53:20.252Z,2.92
2023-05-01T06:54:22.280Z,3.30
2023-05-01T06:55:24.670Z,2.33
2023-05-01T06:56:26.664Z,2.60
2023-05-01T06:57:28.831Z,3.50
2023-05-01T06:58:30.999Z,2.60
2023-05-01T06:59:33.341Z,2.95
2023-05-01T07:00:35.950Z,2.80
2023-05-01T07:01:37.910Z,2.97
2023-05-01T07:02:41.207Z,2.30
2023-05-01T07:03:44.044Z,2.45
2023-05-01T07:04:46.104Z,2.75
2023-05-01T07:05:48.042Z,2.47
2023-05-01T07:06:50.244Z,2.80
2023-05-01T07:08:00.872Z,3.03
2023-05-01T07:09:06.907Z,2.10
2023-05-01T07:10:09.226Z,2.50
2023-05-01T07:11:11.275Z,2.25
2023-05-01T07:12:13.723Z,2.78
2023-05-01T07:13:16.897Z,2.40
2023-05-01T07:14:18.880Z,2.70
2023-05-01T07:15:21.304Z,2.65
2023-05-01T07:17:25.950Z,2.60
2023-05-01T07:18:27.905Z,2.38
2023-05-01T07:19:29.823Z,2.75
2023-05-01T07:20:32.959Z,2.50
2023-05-01T07:22:36.960Z,2.63
2023-05-01T07:23:39.301Z,2.85
2023-05-01T07:24:41.942Z,2.50
2023-05-01T07:25:45.505Z,2.50
2023-05-01T07:26:47.482Z,3.13
2023-05-01T07:27:49.424Z,2.88
2023-05-01T07:28:51.740Z,2.22
2023-05-01T07:29:55.834Z,2.10
2023-05-01T07:30:58.094Z,2.30
2023-05-01T07:32:01.666Z,2.60
2023-05-01T07:33:06.112Z,2.03
2023-05-01T07:34:08.126Z,2.72
2023-05-01T07:35:10.160Z,2.08
2023-05-01T07:36:12.190Z,2.58
2023-05-01T07:37:14.497Z,2.13
2023-05-01T07:38:17.092Z,2.00
2023-05-01T07:39:19.069Z,1.98
2023-05-01T07:40:21.243Z,2.17
2023-05-01T07:41:25.301Z,2.40
2023-05-01T07:42:27.962Z,2.20
2023-05-01T07:43:29.943Z,2.15
2023-05-01T07:44:31.915Z,2.00
2023-05-01T07:45:34.268Z,2.60
2023-05-01T07:46:37.205Z,2.55
2023-05-01T07:47:39.277Z,1.90
2023-05-01T07:48:41.289Z,2.10
2023-05-01T07:49:43.750Z,2.17
2023-05-01T07:50:45.844Z,1.60
2023-05-01T07:51:49.795Z,1.98
2023-05-01T07:52:51.856Z,1.85
2023-05-01T07:53:54.320Z,2.03
2023-05-01T07:54:56.561Z,1.48
2023-05-01T07:56:07.196Z,2.40
2023-05-01T07:57:09.271Z,2.03
2023-05-01T07:58:11.622Z,2.45
2023-05-01T07:59:13.891Z,2.90
2023-05-01T08:00:16.885Z,1.63
2023-05-01T08:01:18.935Z,1.70
2023-05-01T08:02:21.386Z,3.15
2023-05-01T08:03:23.646Z,1.60
2023-05-01T08:04:26.160Z,1.80
2023-05-01T08:05:28.345Z,2.35
2023-05-01T08:06:32.214Z,1.88
2023-05-01T08:07:34.339Z,1.90
2023-05-01T08:08:36.404Z,1.77
2023-05-01T08:09:38.406Z,2.70
2023-05-01T08:10:40.798Z,2.42
2023-05-01T08:11:43.880Z,1.90
2023-05-01T08:12:46.234Z,1.77
2023-05-01T08:13:48.517Z,1.63
2023-05-01T08:14:51.010Z,1.90
2023-05-01T08:15:53.246Z,1.50
2023-05-01T08:16:56.616Z,1.65
2023-05-01T08:17:58.695Z,1.83
2023-05-01T08:19:01.266Z,2.05
2023-05-01T08:20:04.532Z,1.70
2023-05-01T08:21:06.860Z,1.52
2023-05-01T08:22:09.166Z,1.73
2023-05-01T08:24:13.543Z,1.60
2023-05-01T08:25:15.648Z,1.80
2023-05-01T08:26:17.767Z,1.48
2023-05-01T08:27:21.736Z,1.88
2023-05-01T08:28:23.871Z,1.45
2023-05-01T08:29:25.963Z,1.67
2023-05-01T08:30:28.207Z,1.70
2023-05-01T08:31:31.445Z,1.90
2023-05-01T08:33:44.491Z,1.90
2023-05-01T08:34:46.907Z,1.70
2023-05-01T08:36:51.795Z,1.52
2023-05-01T08:37:53.779Z,1.70
2023-05-01T08:38:55.730Z,1.25
2023-05-01T08:39:59.548Z,1.35
2023-05-01T08:41:04.883Z,1.40
2023-05-01T08:42:08.328Z,1.42
2023-05-01T08:43:10.808Z,1.60
2023-05-01T08:45:20.144Z,1.38
2023-05-01T08:46:34.057Z,1.90
2023-05-01T08:47:40.464Z,1.73
2023-05-01T08:48:44.009Z,1.15
2023-05-01T08:49:47.495Z,1.60
2023-05-01T08:50:50.060Z,1.23
2023-05-01T08:51:53.310Z,1.38
2023-05-01T08:52:58.806Z,1.42
2023-05-01T08:54:03.502Z,1.50
2023-05-01T08:55:08.132Z,1.38
2023-05-01T08:56:13.944Z,1.20
2023-05-01T08:57:17.409Z,1.50
2023-05-01T08:58:20.816Z,1.48
2023-05-01T08:59:24.108Z,1.88
2023-05-01T09:00:27.591Z,1.20
2023-05-01T09:01:32.953Z,1.33
2023-05-01T09:02:36.595Z,1.50
2023-05-01T09:03:38.784Z,1.23
2023-05-01T09:04:42.106Z,1.38
2023-05-01T09:05:44.866Z,1.27
2023-05-01T09:09:01.164Z,1.40
2023-05-01T09:10:04.753Z,1.83
2023-05-01T09:11:07.407Z,1.48
2023-05-01T09:12:22.708Z,1.33
2023-05-01T09:13:25.691Z,1.70
2023-05-01T09:14:29.529Z,1.40
2023-05-01T09:15:32.937Z,1.27
2023-05-01T09:16:35.201Z,1.27
2023-05-01T09:17:37.885Z,1.23
2023-05-01T09:18:41.456Z,1.10
2023-05-01T09:19:43.703Z,1.52
2023-05-01T09:20:45.762Z,1.33
2023-05-01T09:21:47.812Z,1.73
2023-05-01T09:22:50.842Z,1.23
2023-05-01T09:23:54.079Z,1.70
2023-05-01T09:24:56.614Z,1.25
2023-05-01T09:25:59.813Z,2.47
2023-05-01T09:27:02.170Z,1.80
2023-05-01T09:28:07.840Z,1.80
2023-05-01T09:29:10.589Z,1.27
2023-05-01T09:30:33.963Z,1.40
2023-05-01T09:31:36.999Z,1.13
2023-05-01T09:32:40.822Z,1.02
2023-05-01T09:33:58.639Z,1.25
2023-05-01T09:35:11.724Z,1.58
2023-05-01T09:36:17.655Z,1.70
2023-05-01T09:37:31.274Z,1.42
2023-05-01T09:38:33.380Z,1.50
2023-05-01T09:39:35.385Z,1.52
2023-05-01T09:40:37.676Z,1.65
2023-05-01T09:41:52.648Z,1.17
2023-05-01T09:42:57.431Z,1.75
2023-05-01T09:43:59.842Z,1.35
2023-05-01T09:46:09.955Z,1.20
2023-05-01T09:47:14.097Z,1.30
2023-05-01T09:48:17.227Z,1.25
2023-05-01T09:49:19.737Z,1.65
2023-05-01T09:50:35.271Z,1.50
2023-05-01T09:51:37.362Z,1.33
2023-05-01T09:52:39.795Z,1.55
2023-05-01T09:53:42.188Z,1.30
2023-05-01T09:54:44.668Z,1.33
2023-05-01T09:56:01.196Z,1.23
2023-05-01T09:57:05.100Z,1.10
2023-05-01T09:58:07.310Z,0.95
2023-05-01T09:59:17.309Z,1.25
2023-05-01T10:00:22.392Z,1.70
2023-05-01T10:01:46.794Z,1.10
2023-05-01T10:02:50.083Z,1.33
2023-05-01T10:03:56.931Z,1.13
2023-05-01T10:05:00.237Z,1.40
2023-05-01T10:06:04.145Z,1.17
2023-05-01T10:07:13.647Z,1.42
2023-05-01T10:08:16.171Z,1.65
2023-05-01T10:09:28.829Z,0.98
2023-05-01T10:10:30.935Z,1.58
2023-05-01T10:11:55.898Z,1.20
2023-05-01T10:13:21.792Z,1.67
2023-05-01T10:14:28.371Z,1.10
2023-05-01T10:15:37.096Z,1.35
2023-05-01T10:16:39.337Z,1.05
2023-05-01T10:17:43.551Z,1.25
2023-05-01T10:18:45.964Z,1.20
2023-05-01T10:19:49.197Z,1.20
2023-05-01T10:21:53.851Z,1.30
2023-05-01T10:22:56.258Z,1.17
2023-05-01T10:23:59.367Z,1.10
2023-05-01T10:26:05.296Z,1.23
2023-05-01T10:27:09.128Z,1.30
2023-05-01T10:28:12.734Z,1.23
2023-05-01T10:29:15.161Z,0.88
2023-05-01T10:30:18.240Z,1.05
2023-05-01T10:31:20.301Z,1.40
2023-05-01T10:32:22.975Z,1.20
2023-05-01T10:33:25.431Z,1.20
2023-05-01T10:34:28.530Z,1.25
2023-05-01T10:35:34.838Z,1.23
2023-05-01T10:36:43.329Z,1.42
2023-05-01T10:37:48.925Z,1.33
2023-05-01T10:38:50.927Z,1.35
2023-05-01T10:39:52.987Z,1.38
2023-05-01T10:40:55.337Z,1.20
2023-05-01T10:42:04.012Z,1.20
2023-05-01T10:43:19.093Z,1.20
2023-05-01T10:44:23.630Z,1.60
2023-05-01T10:45:30.122Z,1.38
2023-05-01T10:46:34.835Z,1.40
2023-05-01T10:47:41.698Z,1.00
2023-05-01T10:48:47.170Z,1.55
2023-05-01T10:50:16.233Z,1.15
2023-05-01T10:51:20.904Z,0.90
2023-05-01T10:52:23.215Z,1.20
2023-05-01T10:53:25.227Z,1.20
2023-05-01T10:54:36.178Z,1.10
2023-05-01T10:55:39.568Z,1.40
2023-05-01T10:56:43.599Z,1.30
2023-05-01T10:57:46.374Z,1.20
2023-05-01T10:59:04.960Z,1.58
2023-05-01T11:00:06.918Z,1.38
2023-05-01T11:01:34.290Z,1.55
2023-05-01T11:02:54.295Z,1.50
2023-05-01T11:04:05.874Z,1.65
2023-05-01T11:05:08.599Z,1.13
2023-05-01T11:07:41.872Z,2.95
2023-05-01T11:19:44.859Z,1.30
2023-05-01T11:20:50.355Z,1.40
2023-05-01T11:21:56.099Z,1.42
2023-05-01T11:22:58.819Z,1.17
2023-05-01T11:26:52.803Z,1.23
2023-05-01T11:27:57.031Z,1.27
2023-05-01T11:29:01.899Z,1.40
2023-05-01T11:30:04.208Z,1.80
2023-05-01T11:31:06.298Z,1.20
2023-05-01T11:32:08.884Z,1.27
2023-05-01T11:33:11.446Z,1.73
2023-05-01T11:34:13.699Z,0.98
2023-05-01T11:35:23.428Z,1.50
2023-05-01T11:36:27.208Z,1.30
2023-05-01T11:37:45.545Z,1.10
2023-05-01T11:38:59.324Z,1.45
2023-05-01T11:40:01.318Z,1.20
2023-05-01T11:41:04.673Z,1.42
2023-05-01T11:42:10.743Z,1.60
2023-05-01T11:43:12.943Z,1.45
2023-05-01T11:44:18.909Z,1.35
2023-05-01T11:45:21.132Z,1.80
2023-05-01T11:46:31.398Z,1.55
2023-05-01T11:47:33.482Z,1.50
2023-05-01T11:48:35.473Z,1.40
2023-05-01T11:49:37.560Z,1.27
2023-05-01T11:50:39.949Z,1.20
2023-05-01T11:51:41.914Z,1.02
2023-05-01T11:53:02.374Z,1.02
2023-05-01T11:54:15.528Z,1.20
2023-05-01T11:55:18.101Z,1.30
2023-05-01T11:56:26.980Z,1.40
2023-05-01T11:57:29.457Z,1.40
2023-05-01T11:58:35.042Z,1.30
2023-05-01T11:59:40.477Z,1.33
2023-05-01T12:00:43.904Z,1.25
2023-05-01T12:01:47.279Z,1.70
2023-05-01T12:03:08.899Z,1.40
2023-05-01T12:04:12.546Z,1.60
2023-05-01T12:05:21.905Z,1.45
2023-05-01T12:06:40.922Z,1.30
2023-05-01T12:07:43.275Z,1.20
2023-05-01T12:08:56.462Z,1.27
2023-05-01T12:10:01.189Z,1.20
2023-05-01T12:11:03.519Z,1.50
2023-05-01T12:12:06.260Z,1.38
2023-05-01T12:13:09.860Z,1.00
2023-05-01T12:14:12.861Z,1.63
2023-05-01T12:15:15.225Z,1.10
2023-05-01T12:16:18.592Z,1.15
2023-05-01T12:17:21.728Z,1.38
2023-05-01T12:18:24.027Z,1.45
2023-05-01T12:19:26.868Z,1.20
2023-05-01T12:20:40.406Z,1.13
2023-05-01T12:21:42.946Z,1.35
2023-05-01T12:22:51.243Z,1.30
2023-05-01T12:23:54.794Z,1.60
2023-05-01T12:24:57.406Z,1.10
2023-05-01T12:26:06.355Z,1.65
2023-05-01T12:28:20.538Z,1.30
2023-05-01T12:29:22.996Z,1.50
2023-05-01T12:30:53.354Z,1.67
2023-05-01T12:31:55.608Z,1.35
2023-05-01T12:32:58.629Z,1.10
2023-05-01T12:35:31.051Z,1.10
2023-05-01T12:36:35.919Z,1.30
2023-05-01T12:37:38.435Z,1.23
2023-05-01T12:38:40.429Z,1.23
2023-05-01T12:39:45.087Z,1.20
2023-05-01T12:40:58.069Z,1.30
2023-05-01T12:42:00.398Z,1.30
2023-05-01T12:43:02.714Z,1.65
2023-05-01T12:44:20.662Z,1.63
2023-05-01T12:45:22.685Z,1.17
2023-05-01T12:46:25.086Z,1.42
2023-05-01T12:47:27.201Z,1.80
2023-05-01T12:48:30.497Z,1.30
2023-05-01T12:49:32.896Z,1.30
2023-05-01T12:50:38.939Z,1.50
2023-05-01T12:51:45.717Z,1.73
2023-05-01T12:52:48.751Z,1.33
2023-05-01T12:53:51.907Z,1.30
2023-05-01T12:55:09.188Z,1.60
2023-05-01T12:56:23.513Z,1.73
2023-05-01T12:57:25.537Z,1.88
2023-05-01T12:58:37.391Z,1.98
2023-05-01T12:59:40.974Z,1.67
2023-05-01T13:00:52.698Z,1.55
2023-05-01T13:02:02.995Z,1.20
2023-05-01T13:03:05.635Z,1.67
2023-05-01T13:04:08.035Z,1.60
2023-05-01T13:05:17.353Z,1.60
2023-05-01T13:06:19.353Z,1.40
2023-05-01T13:07:21.465Z,1.40
2023-05-01T13:08:44.663Z,1.48
2023-05-01T13:09:54.200Z,1.50
2023-05-01T13:10:57.441Z,1.50
2023-05-01T13:12:02.781Z,1.30
2023-05-01T13:13:05.176Z,1.40
2023-05-01T13:14:15.693Z,1.55
2023-05-01T13:15:22.367Z,2.00
2023-05-01T13:16:25.272Z,1.35
2023-05-01T13:17:30.401Z,1.27
2023-05-01T13:18:43.748Z,1.58
2023-05-01T13:19:45.748Z,1.55
2023-05-01T13:20:47.740Z,1.23
2023-05-01T13:21:50.173Z,1.70
2023-05-01T13:23:39.569Z,1.80
2023-05-01T13:25:05.112Z,1.45
2023-05-01T13:26:58.456Z,1.30
2023-05-01T13:28:14.583Z,1.70
2023-05-01T13:29:17.626Z,1.63
2023-05-01T13:30:31.973Z,1.42
2023-05-01T13:31:34.203Z,1.33
2023-05-01T13:32:41.246Z,1.27
2023-05-01T13:33:43.844Z,1.52
2023-05-01T13:35:47.949Z,1.15
2023-05-01T13:36:49.943Z,1.52
2023-05-01T13:37:53.246Z,1.50
2023-05-01T13:38:57.142Z,1.50
2023-05-01T13:39:59.905Z,1.33
2023-05-01T13:41:02.126Z,1.15
2023-05-01T13:42:16.910Z,1.33
2023-05-01T13:43:21.319Z,1.02
2023-05-01T13:44:23.506Z,1.55
2023-05-01T13:45:26.537Z,1.20
2023-05-01T13:46:28.864Z,1.23
2023-05-01T13:48:33.316Z,1.45
2023-05-01T13:49:35.202Z,1.50
2023-05-01T13:50:40.813Z,1.60
2023-05-01T13:51:44.981Z,1.55
2023-05-01T13:52:47.096Z,1.95
2023-05-01T13:53:49.236Z,1.30
2023-05-01T13:54:55.813Z,1.65
2023-05-01T13:56:05.350Z,2.72
2023-05-01T13:57:07.610Z,1.90
2023-05-01T13:58:09.729Z,2.00
2023-05-01T13:59:11.638Z,3.28
2023-05-01T14:00:30.956Z,3.50
2023-05-01T14:01:39.659Z,1.70
2023-05-01T14:02:45.107Z,1.33
2023-05-01T14:03:47.817Z,1.73
2023-05-01T14:04:50.430Z,1.90
2023-05-01T14:05:52.481Z,2.08
2023-05-01T14:06:54.665Z,1.60
2023-05-01T14:07:58.654Z,1.40
2023-05-01T14:09:01.392Z,1.60
2023-05-01T14:10:06.208Z,2.03
2023-05-01T14:11:09.643Z,1.50
2023-05-01T14:12:14.862Z,1.70
2023-05-01T14:13:18.639Z,1.60
2023-05-01T14:14:20.632Z,1.58
2023-05-01T14:15:24.512Z,1.42
2023-05-01T14:16:28.236Z,1.35
2023-05-01T14:17:32.882Z,2.13
2023-05-01T14:18:35.521Z,1.83
2023-05-01T14:19:38.716Z,2.03
2023-05-01T14:20:41.601Z,6.28
2023-05-01T14:21:44.449Z,2.42
2023-05-01T14:22:48.485Z,3.83
2023-05-01T14:23:52.826Z,1.75
2023-05-01T14:24:54.797Z,2.58
2023-05-01T14:25:57.233Z,1.90
2023-05-01T14:26:59.250Z,1.95
2023-05-01T14:28:05.394Z,2.65
2023-05-01T14:29:13.126Z,1.65
2023-05-01T14:30:37.578Z,1.88
2023-05-01T14:31:39.702Z,3.05
2023-05-01T14:32:42.152Z,2.05
2023-05-01T14:33:44.701Z,3.20
2023-05-01T14:35:53.856Z,1.98
2023-05-01T14:36:58.792Z,2.20
2023-05-01T14:38:09.278Z,2.75
2023-05-01T14:39:12.677Z,1.60
2023-05-01T14:40:15.227Z,1.75
2023-05-01T14:41:19.979Z,3.50
2023-05-01T14:42:21.880Z,2.33
2023-05-01T14:43:24.139Z,2.33
2023-05-01T14:44:30.850Z,2.53
2023-05-01T14:45:32.781Z,1.75
2023-05-01T14:46:36.366Z,3.33
2023-05-01T14:47:41.349Z,2.90
2023-05-01T14:48:43.346Z,2.22
2023-05-01T14:49:45.474Z,1.95
2023-05-01T14:50:47.621Z,1.40
2023-05-01T14:51:51.870Z,1.73
2023-05-01T14:52:57.992Z,2.10
2023-05-01T14:54:00.530Z,1.83
2023-05-01T14:55:02.549Z,1.95
2023-05-01T14:56:05.200Z,2.10
2023-05-01T14:57:08.610Z,1.83
2023-05-01T14:58:10.707Z,1.85
2023-05-01T14:59:13.018Z,1.77
2023-05-01T15:00:15.984Z,1.80
2023-05-01T15:01:18.396Z,1.80
2023-05-01T15:02:20.649Z,1.83
2023-05-01T15:03:22.694Z,2.08